createdAt,value
2018-04-04T00:00:37.369Z,3.93
2018-04-04T00:03:05.114Z,4.35
2018-04-04T00:05:32.578Z,4.37
2018-04-04T00:08:07.099Z,3.80
2018-04-04T00:10:34.572Z,4.30
2018-04-04T00:13:02.224Z,4.07
2018-04-04T00:15:29.717Z,3.75
2018-04-04T00:17:57.198Z,4.07
2018-04-04T00:20:24.687Z,4.13
2018-04-04T00:22:52.445Z,3.80
2018-04-04T00:25:27.194Z,3.90
2018-04-04T00:27:54.650Z,4.43
2018-04-04T00:30:22.148Z,3.50
2018-04-04T00:32:50.364Z,3.57
2018-04-04T00:35:17.846Z,4.07
2018-04-04T00:37:45.543Z,4.43
2018-04-04T00:40:12.996Z,4.10
2018-04-04T00:42:40.784Z,4.00
2018-04-04T00:45:08.770Z,3.75
2018-04-04T00:47:36.251Z,4.53
2018-04-04T00:50:03.712Z,3.70
2018-04-04T00:52:31.213Z,4.50
2018-04-04T00:55:02.458Z,3.30
2018-04-04T00:57:31.097Z,3.42
2018-04-04T00:59:58.586Z,3.40
2018-04-04T01:02:26.064Z,3.40
2018-04-04T01:04:54.320Z,3.47
2018-04-04T01:07:23.290Z,3.08
2018-04-04T01:09:51.078Z,4.87
2018-04-04T01:12:18.555Z,3.20
2018-04-04T01:14:46.047Z,4.17
2018-04-04T01:17:14.299Z,3.80
2018-04-04T01:19:41.776Z,3.42
2018-04-04T01:22:09.233Z,4.63
2018-04-04T01:24:40.117Z,4.13
2018-04-04T01:27:07.594Z,3.73
2018-04-04T01:29:35.062Z,3.60
2018-04-04T01:32:04.230Z,3.60
2018-04-04T01:34:31.681Z,4.03
2018-04-04T01:36:59.149Z,3.40
2018-04-04T01:39:31.032Z,3.57
2018-04-04T01:41:58.773Z,4.07
2018-04-04T01:44:26.404Z,3.35
2018-04-04T01:46:54.095Z,4.00
2018-04-04T01:49:21.621Z,4.37
2018-04-04T01:51:49.121Z,4.20
2018-04-04T01:54:16.689Z,3.73
2018-04-04T01:56:44.646Z,5.40
2018-04-04T01:59:12.873Z,5.25
2018-04-04T02:01:40.340Z,4.57
2018-04-04T02:04:07.785Z,4.07
2018-04-04T02:06:35.296Z,4.57
2018-04-04T02:09:03.514Z,4.37
2018-04-04T02:11:31.892Z,4.32
2018-04-04T02:13:59.373Z,5.75
2018-04-04T02:16:26.826Z,3.67
2018-04-04T02:18:54.341Z,3.83
2018-04-04T02:21:21.840Z,4.85
2018-04-04T02:23:49.303Z,4.45
2018-04-04T02:26:16.867Z,4.43
2018-04-04T02:28:44.570Z,4.10
2018-04-04T02:31:12.365Z,4.93
2018-04-04T02:33:40.378Z,3.12
2018-04-04T02:36:08.155Z,5.40
2018-04-04T02:38:35.612Z,3.73
2018-04-04T02:41:03.085Z,3.90
2018-04-04T02:43:31.345Z,3.97
2018-04-04T02:45:59.361Z,5.55
2018-04-04T02:48:26.877Z,4.20
2018-04-04T02:50:55.148Z,4.10
2018-04-04T02:53:22.585Z,4.47
2018-04-04T02:55:50.043Z,3.70
2018-04-04T02:58:17.533Z,3.90
2018-04-04T03:00:45.739Z,4.30
2018-04-04T03:03:13.412Z,4.32
2018-04-04T03:05:40.856Z,4.13
2018-04-04T03:08:09.885Z,5.55
2018-04-04T03:10:38.562Z,3.60
2018-04-04T03:13:06.252Z,4.10
2018-04-04T03:15:33.942Z,4.70
2018-04-04T03:18:03.081Z,4.20
2018-04-04T03:20:30.574Z,4.73
2018-04-04T03:22:58.038Z,5.07
2018-04-04T03:25:26.253Z,6.87
2018-04-04T03:27:53.733Z,4.20
2018-04-04T03:30:21.994Z,4.90
2018-04-04T03:32:49.458Z,7.75
2018-04-04T03:35:17.697Z,5.80
2018-04-04T03:37:45.180Z,5.70
2018-04-04T03:40:12.637Z,4.20
2018-04-04T03:42:41.787Z,4.97
2018-04-04T03:45:09.262Z,5.20
2018-04-04T03:47:36.758Z,4.30
2018-04-04T03:50:04.211Z,4.10
2018-04-04T03:52:31.661Z,4.87
2018-04-04T03:54:59.143Z,4.60
2018-04-04T03:57:26.582Z,4.80
2018-04-04T03:59:55.013Z,5.10
2018-04-04T04:02:22.466Z,4.70
2018-04-04T04:04:50.713Z,4.83
2018-04-04T04:07:18.930Z,4.87
2018-04-04T04:09:46.644Z,5.23
2018-04-04T04:12:14.092Z,5.30
2018-04-04T04:14:41.568Z,4.27
2018-04-04T04:17:09.025Z,4.70
2018-04-04T04:19:36.512Z,6.27
2018-04-04T04:22:04.792Z,5.62
2018-04-04T04:24:32.323Z,5.95
2018-04-04T04:26:59.777Z,7.20
2018-04-04T04:29:28.633Z,4.57
2018-04-04T04:31:56.121Z,5.33
2018-04-04T04:34:23.608Z,5.07
2018-04-04T04:36:51.122Z,6.32
2018-04-04T04:39:19.189Z,4.63
2018-04-04T04:41:46.767Z,5.50
2018-04-04T04:44:14.209Z,5.83
2018-04-04T04:46:41.665Z,5.80
2018-04-04T04:49:09.136Z,6.63
2018-04-04T04:51:36.625Z,5.40
2018-04-04T04:54:04.869Z,6.78
2018-04-04T04:56:32.373Z,6.10
2018-04-04T04:59:00.765Z,6.43
2018-04-04T05:01:28.244Z,5.53
2018-04-04T05:03:55.727Z,4.87
2018-04-04T05:06:23.214Z,4.70
2018-04-04T05:08:50.698Z,5.97
2018-04-04T05:11:18.176Z,6.23
2018-04-04T05:13:45.655Z,6.57
2018-04-04T05:16:13.153Z,6.37
2018-04-04T05:18:40.628Z,5.03
2018-04-04T05:21:09.037Z,6.00
2018-04-04T05:23:36.535Z,5.80
2018-04-04T05:26:04.032Z,6.10
2018-04-04T05:28:38.820Z,5.85
2018-04-04T05:31:06.415Z,5.00
2018-04-04T05:33:35.600Z,5.47
2018-04-04T05:36:03.091Z,4.67
2018-04-04T05:38:30.601Z,7.90
2018-04-04T05:40:59.745Z,5.95
2018-04-04T05:43:30.923Z,6.60
2018-04-04T05:45:58.394Z,6.10
2018-04-04T05:48:25.910Z,7.67
2018-04-04T05:50:53.981Z,7.03
2018-04-04T05:53:21.549Z,7.37
2018-04-04T05:55:49.793Z,5.20
2018-04-04T05:58:17.298Z,6.30
2018-04-04T06:00:47.726Z,6.77
2018-04-04T06:03:15.213Z,6.90
2018-04-04T06:05:43.513Z,5.97
2018-04-04T06:08:11.050Z,8.00
2018-04-04T06:10:38.521Z,6.90
2018-04-04T06:13:05.985Z,5.97
2018-04-04T06:15:36.693Z,6.53
2018-04-04T06:18:04.150Z,6.20
2018-04-04T06:20:33.322Z,6.95
2018-04-04T06:23:00.769Z,8.97
2018-04-04T06:25:28.259Z,8.23
2018-04-04T06:27:57.431Z,6.82
2018-04-04T06:30:29.202Z,7.00
2018-04-04T06:32:56.652Z,7.20
2018-04-04T06:35:24.253Z,8.03
2018-04-04T06:37:51.724Z,6.45
2018-04-04T06:40:19.210Z,6.55
2018-04-04T06:42:47.194Z,6.07
2018-04-04T06:45:14.651Z,6.30
2018-04-04T06:47:42.704Z,7.33
2018-04-04T06:50:10.157Z,6.50
2018-04-04T06:52:37.616Z,7.30
2018-04-04T06:55:05.088Z,5.82
2018-04-04T06:57:32.584Z,6.03
2018-04-04T07:00:00.982Z,6.72
2018-04-04T07:02:28.436Z,6.33
2018-04-04T07:04:55.919Z,6.17
2018-04-04T07:07:23.400Z,5.87
2018-04-04T07:09:50.947Z,6.47
2018-04-04T07:12:18.445Z,6.37
2018-04-04T07:14:46.688Z,6.00
2018-04-04T07:17:14.613Z,7.57
2018-04-04T07:19:42.072Z,6.13
2018-04-04T07:22:09.553Z,5.40
2018-04-04T07:24:37.009Z,5.27
2018-04-04T07:27:04.468Z,5.50
2018-04-04T07:29:32.256Z,4.37
2018-04-04T07:31:59.789Z,5.32
2018-04-04T07:34:27.281Z,4.53
2018-04-04T07:36:54.754Z,5.30
2018-04-04T07:39:23.931Z,6.00
2018-04-04T07:41:51.381Z,5.33
2018-04-04T07:44:18.869Z,5.37
2018-04-04T07:46:57.807Z,6.23
2018-04-04T07:49:25.275Z,4.50
2018-04-04T07:51:52.757Z,4.67
2018-04-04T07:54:20.326Z,4.10
2018-04-04T07:56:48.459Z,5.53
2018-04-04T07:59:15.924Z,4.20
2018-04-04T08:01:46.525Z,4.23
2018-04-04T08:04:13.989Z,3.60
2018-04-04T08:06:41.497Z,3.67
2018-04-04T08:09:08.981Z,4.47
2018-04-04T08:11:36.461Z,4.60
2018-04-04T08:14:03.920Z,4.47
2018-04-04T08:16:34.630Z,3.77
2018-04-04T08:19:02.155Z,4.00
2018-04-04T08:21:29.628Z,5.00
2018-04-04T08:23:57.433Z,4.18
2018-04-04T08:26:24.941Z,4.97
2018-04-04T08:28:52.423Z,3.70
2018-04-04T08:31:23.561Z,3.85
2018-04-04T08:33:51.053Z,4.75
2018-04-04T08:36:19.125Z,4.47
2018-04-04T08:38:47.118Z,4.50
2018-04-04T08:41:14.604Z,4.50
2018-04-04T08:43:42.465Z,5.20
2018-04-04T08:46:09.949Z,4.93
2018-04-04T08:48:37.484Z,4.30
2018-04-04T08:51:05.904Z,5.00
2018-04-04T08:53:33.750Z,3.47
2018-04-04T08:56:01.205Z,3.33
2018-04-04T08:58:28.665Z,5.90
2018-04-04T09:00:56.195Z,5.57
2018-04-04T09:03:26.892Z,4.10
2018-04-04T09:05:54.392Z,6.23
2018-04-04T09:08:21.887Z,3.40
2018-04-04T09:10:49.938Z,3.90
2018-04-04T09:13:17.470Z,3.35
2018-04-04T09:15:45.759Z,3.07
2018-04-04T09:18:13.268Z,4.63
2018-04-04T09:20:40.851Z,3.63
2018-04-04T09:23:09.063Z,2.87
2018-04-04T09:25:36.895Z,3.70
2018-04-04T09:28:04.607Z,3.47
2018-04-04T09:30:32.150Z,3.57
2018-04-04T09:32:59.674Z,3.30
2018-04-04T09:35:27.181Z,3.08
2018-04-04T09:37:54.675Z,4.40
2018-04-04T09:40:23.159Z,4.60
2018-04-04T09:42:50.687Z,3.20
2018-04-04T09:45:18.988Z,2.87
2018-04-04T09:47:49.858Z,4.00
2018-04-04T09:50:18.062Z,3.70
2018-04-04T09:52:45.570Z,3.80
2018-04-04T09:55:13.092Z,3.80
2018-04-04T09:57:40.610Z,3.80
2018-04-04T10:00:08.152Z,2.87
2018-04-04T10:02:35.661Z,3.23
2018-04-04T10:05:03.231Z,3.10
2018-04-04T10:07:32.078Z,3.17
2018-04-04T10:09:59.605Z,3.87
2018-04-04T10:12:27.123Z,3.60
2018-04-04T10:14:54.647Z,3.73
2018-04-04T10:17:22.202Z,3.63
2018-04-04T10:19:49.704Z,4.53
2018-04-04T10:22:17.227Z,3.60
2018-04-04T10:24:45.698Z,3.87
2018-04-04T10:27:13.192Z,3.50
2018-04-04T10:29:40.749Z,5.67
2018-04-04T10:32:08.275Z,2.95
2018-04-04T10:34:35.767Z,2.73
2018-04-04T10:37:03.254Z,3.27
2018-04-04T10:39:31.549Z,3.43
2018-04-04T10:41:59.167Z,3.37
2018-04-04T10:44:26.712Z,3.92
2018-04-04T10:46:54.219Z,4.20
2018-04-04T10:49:25.688Z,3.47
2018-04-04T10:51:54.106Z,3.70
2018-04-04T10:54:21.749Z,4.30
2018-04-04T10:56:49.266Z,3.97
2018-04-04T10:59:17.584Z,3.50
2018-04-04T11:01:45.096Z,2.75
2018-04-04T11:04:13.586Z,2.90
2018-04-04T11:06:45.118Z,2.50
2018-04-04T11:09:12.614Z,3.45
2018-04-04T11:11:40.130Z,2.33
2018-04-04T11:14:08.532Z,2.17
2018-04-04T11:16:36.056Z,2.67
2018-04-04T11:19:03.559Z,1.90
2018-04-04T11:21:31.092Z,2.37
2018-04-04T11:23:59.362Z,2.57
2018-04-04T11:26:27.522Z,3.42
2018-04-04T11:28:55.040Z,2.83
2018-04-04T11:31:22.640Z,2.57
2018-04-04T11:33:50.176Z,1.90
2018-04-04T11:36:17.669Z,2.40
2018-04-04T11:38:45.181Z,2.20
2018-04-04T11:41:12.919Z,2.83
2018-04-04T11:43:41.139Z,2.83
2018-04-04T11:46:08.722Z,4.03
2018-04-04T11:48:36.414Z,1.80
2018-04-04T11:51:07.665Z,2.85
2018-04-04T11:53:35.937Z,2.77
2018-04-04T11:56:03.440Z,1.67
2018-04-04T11:58:30.958Z,2.13
2018-04-04T12:00:58.606Z,2.20
2018-04-04T12:03:26.140Z,3.23
2018-04-04T12:05:53.645Z,2.70
2018-04-04T12:08:21.175Z,2.03
2018-04-04T12:10:50.393Z,2.60
2018-04-04T12:13:18.208Z,2.73
2018-04-04T12:15:45.744Z,1.70
2018-04-04T12:18:15.023Z,2.00
2018-04-04T12:20:42.569Z,2.00
2018-04-04T12:23:10.140Z,1.73
2018-04-04T12:25:37.697Z,2.30
2018-04-04T12:28:05.205Z,2.12
2018-04-04T12:30:33.656Z,2.50
2018-04-04T12:33:01.172Z,1.90
2018-04-04T12:35:28.690Z,2.33
2018-04-04T12:37:56.248Z,3.42
2018-04-04T12:40:23.744Z,2.87
2018-04-04T12:42:52.926Z,2.03
2018-04-04T12:45:20.448Z,2.00
2018-04-04T12:47:47.984Z,2.23
2018-04-04T12:50:15.480Z,1.77
2018-04-04T12:52:43.024Z,1.97
2018-04-04T12:55:10.583Z,2.27
2018-04-04T12:57:38.395Z,2.20
2018-04-04T13:00:06.848Z,1.80
2018-04-04T13:02:34.383Z,1.73
2018-04-04T13:05:02.046Z,2.93
2018-04-04T13:07:33.487Z,1.73
2018-04-04T13:10:01.708Z,1.70
2018-04-04T13:12:29.250Z,2.30
2018-04-04T13:14:56.777Z,1.20
2018-04-04T13:17:24.287Z,2.70
2018-04-04T13:19:51.844Z,1.80
2018-04-04T13:22:19.356Z,1.70
2018-04-04T13:24:46.896Z,1.47
2018-04-04T13:27:15.205Z,1.90
2018-04-04T13:29:42.716Z,2.75
2018-04-04T13:32:11.008Z,2.07
2018-04-04T13:34:38.551Z,1.07
2018-04-04T13:37:06.106Z,1.70
2018-04-04T13:39:33.611Z,2.27
2018-04-04T13:42:01.135Z,1.00
2018-04-04T13:44:29.395Z,1.30
2018-04-04T13:46:56.906Z,2.07
2018-04-04T13:49:24.413Z,1.20
2018-04-04T13:51:55.805Z,1.30
2018-04-04T13:54:25.055Z,1.43
2018-04-04T13:56:52.659Z,2.90
2018-04-04T13:59:20.940Z,2.40
2018-04-04T14:01:49.971Z,2.00
2018-04-04T14:04:17.553Z,1.58
2018-04-04T14:06:48.204Z,1.90
2018-04-04T14:09:15.941Z,1.70
2018-04-04T14:11:44.652Z,1.40
2018-04-04T14:14:12.197Z,1.80
2018-04-04T14:16:40.489Z,1.80
2018-04-04T14:19:08.235Z,2.65
2018-04-04T14:21:35.771Z,1.63
2018-04-04T14:24:03.263Z,1.40
2018-04-04T14:26:31.575Z,1.20
2018-04-04T14:28:59.198Z,1.30
2018-04-04T14:31:28.463Z,1.77
2018-04-04T14:33:56.362Z,1.30
2018-04-04T14:36:24.642Z,2.00
2018-04-04T14:38:52.287Z,1.60
2018-04-04T14:41:19.809Z,2.08
2018-04-04T14:43:47.323Z,1.77
2018-04-04T14:46:15.569Z,1.50
2018-04-04T14:48:43.115Z,1.40
2018-04-04T14:51:10.595Z,1.65
2018-04-04T14:53:38.050Z,1.20
2018-04-04T14:56:06.936Z,1.00
2018-04-04T14:58:34.600Z,1.17
2018-04-04T15:01:02.074Z,2.00
2018-04-04T15:03:31.216Z,1.57
2018-04-04T15:05:58.740Z,1.60
2018-04-04T15:08:26.963Z,1.60
2018-04-04T15:10:56.149Z,2.20
2018-04-04T15:13:23.614Z,1.50
2018-04-04T15:15:51.088Z,1.80
2018-04-04T15:18:18.878Z,1.60
2018-04-04T15:20:46.339Z,1.40
2018-04-04T15:23:18.295Z,1.20
2018-04-04T15:25:46.050Z,3.10
2018-04-04T15:28:13.519Z,2.13
2018-04-04T15:30:41.783Z,2.20
2018-04-04T15:33:10.365Z,2.17
2018-04-04T15:35:37.874Z,1.40
2018-04-04T15:38:05.348Z,2.40
2018-04-04T15:40:32.967Z,1.70
2018-04-04T15:43:01.716Z,1.80
2018-04-04T15:45:29.211Z,1.95
2018-04-04T15:47:57.423Z,1.87
2018-04-04T15:50:24.917Z,1.87
2018-04-04T15:52:52.584Z,2.97
2018-04-04T15:55:20.039Z,1.80
2018-04-04T15:57:48.975Z,2.30
2018-04-04T16:00:16.412Z,2.07
2018-04-04T16:02:43.895Z,2.10
2018-04-04T16:05:11.368Z,2.30
2018-04-04T16:07:39.027Z,2.00
2018-04-04T16:10:06.497Z,1.45
2018-04-04T16:12:34.067Z,1.70
2018-04-04T16:15:02.080Z,1.57
2018-04-04T16:17:29.576Z,1.67
2018-04-04T16:19:57.174Z,1.33
2018-04-04T16:22:24.638Z,2.15
2018-04-04T16:24:56.281Z,1.80
2018-04-04T16:27:23.737Z,1.37
2018-04-04T16:29:51.621Z,1.20
2018-04-04T16:32:19.882Z,2.00
2018-04-04T16:34:47.338Z,1.03
2018-04-04T16:37:14.809Z,1.37
2018-04-04T16:39:42.558Z,1.30
2018-04-04T16:42:11.512Z,1.87
2018-04-04T16:44:39.009Z,0.80
2018-04-04T16:47:06.465Z,1.10
2018-04-04T16:49:33.955Z,0.93
2018-04-04T16:52:01.405Z,1.47
2018-04-04T16:54:29.265Z,1.40
2018-04-04T16:56:56.814Z,1.37
2018-04-04T16:59:24.280Z,1.50
2018-04-04T17:01:52.541Z,0.70
2018-04-04T17:04:20.827Z,1.20
2018-04-04T17:06:50.062Z,1.00
2018-04-04T17:09:17.496Z,1.83
2018-04-04T17:11:45.012Z,1.30
2018-04-04T17:14:12.506Z,1.30
2018-04-04T17:16:39.977Z,1.20
2018-04-04T17:19:08.257Z,1.10
2018-04-04T17:21:35.697Z,1.33
2018-04-04T17:24:03.945Z,0.80
2018-04-04T17:26:33.841Z,1.00
2018-04-04T17:29:01.320Z,1.53
2018-04-04T17:31:28.782Z,1.43
2018-04-04T17:33:57.977Z,1.30
2018-04-04T17:36:25.434Z,1.60
2018-04-04T17:38:52.922Z,1.30
2018-04-04T17:41:24.089Z,1.00
2018-04-04T17:43:51.897Z,0.80
2018-04-04T17:46:19.365Z,0.90
2018-04-04T17:48:47.343Z,1.50
2018-04-04T17:51:14.815Z,0.90
2018-04-04T17:53:42.341Z,1.20
2018-04-04T17:56:13.581Z,1.00
2018-04-04T17:58:41.981Z,1.17
2018-04-04T18:01:10.217Z,0.93
2018-04-04T18:03:37.685Z,1.62
2018-04-04T18:06:05.198Z,1.00
2018-04-04T18:08:32.648Z,2.03
2018-04-04T18:11:00.103Z,1.00
2018-04-04T18:13:27.599Z,1.77
2018-04-04T18:15:55.089Z,1.55
2018-04-04T18:18:22.568Z,1.45
2018-04-04T18:20:50.521Z,1.90
2018-04-04T18:23:17.986Z,1.10
2018-04-04T18:25:46.288Z,1.43
2018-04-04T18:28:13.764Z,1.00
2018-04-04T18:30:41.217Z,1.30
2018-04-04T18:33:09.489Z,2.15
2018-04-04T18:35:36.973Z,1.10
2018-04-04T18:38:04.552Z,1.33
2018-04-04T18:40:32.020Z,1.57
2018-04-04T18:43:11.411Z,2.12
2018-04-04T18:45:38.898Z,1.20
2018-04-04T18:48:06.396Z,1.10
2018-04-04T18:50:33.925Z,1.10
2018-04-04T18:53:01.420Z,1.10
2018-04-04T18:55:29.857Z,1.20
2018-04-04T18:57:57.485Z,1.05
2018-04-04T19:00:24.946Z,0.93
2018-04-04T19:02:52.421Z,1.50
2018-04-04T19:05:19.893Z,1.30
2018-04-04T19:07:47.362Z,1.17
2018-04-04T19:10:14.809Z,1.13
2018-04-04T19:12:47.544Z,1.10
2018-04-04T19:15:15.002Z,1.30
2018-04-04T19:17:42.523Z,1.30
2018-04-04T19:20:10.744Z,1.43
2018-04-04T19:22:38.247Z,1.00
2018-04-04T19:25:05.754Z,1.23
2018-04-04T19:27:33.446Z,1.10
2018-04-04T19:30:00.924Z,1.25
2018-04-04T19:32:28.368Z,1.33
2018-04-04T19:34:56.025Z,1.00
2018-04-04T19:37:23.480Z,1.15
2018-04-04T19:39:50.960Z,1.12
2018-04-04T19:42:22.206Z,1.10
2018-04-04T19:44:49.693Z,1.15
2018-04-04T19:47:17.181Z,1.23
2018-04-04T19:49:44.682Z,0.90
2018-04-04T19:52:12.908Z,1.20
2018-04-04T19:54:41.813Z,1.33
2018-04-04T19:57:09.305Z,1.33
2018-04-04T19:59:36.757Z,1.30
2018-04-04T20:02:04.231Z,0.90
2018-04-04T20:04:31.677Z,1.10
2018-04-04T20:06:59.158Z,1.10
2018-04-04T20:09:26.613Z,0.90
2018-04-04T20:11:55.038Z,1.35
2018-04-04T20:14:22.521Z,0.80
2018-04-04T20:16:49.990Z,1.00
2018-04-04T20:19:17.471Z,0.90
2018-04-04T20:21:44.928Z,1.80
2018-04-04T20:24:12.409Z,0.80
2018-04-04T20:26:39.867Z,1.10
2018-04-04T20:29:09.293Z,0.90
2018-04-04T20:31:36.757Z,1.47
2018-04-04T20:34:04.270Z,1.70
2018-04-04T20:36:31.844Z,1.70
2018-04-04T20:38:59.341Z,1.70
2018-04-04T20:41:26.850Z,0.95
2018-04-04T20:43:54.317Z,1.10
2018-04-04T20:46:22.428Z,1.03
2018-04-04T20:48:49.928Z,1.50
2018-04-04T20:51:17.401Z,1.00
2018-04-04T20:53:45.433Z,1.20
2018-04-04T20:56:13.684Z,1.00
2018-04-04T20:58:41.847Z,1.12
2018-04-04T21:01:09.316Z,1.70
2018-04-04T21:03:36.781Z,1.00
2018-04-04T21:06:04.281Z,1.60
2018-04-04T21:08:31.917Z,1.20
2018-04-04T21:10:59.421Z,1.40
2018-04-04T21:13:26.912Z,1.33
2018-04-04T21:15:54.977Z,1.10
2018-04-04T21:18:22.607Z,1.35
2018-04-04T21:23:23.981Z,1.30
2018-04-04T21:25:51.433Z,1.20
2018-04-04T21:28:18.922Z,1.50
2018-04-04T21:30:46.385Z,1.20
2018-04-04T21:33:13.993Z,1.10
2018-04-04T21:35:41.438Z,1.45
2018-04-04T21:38:09.677Z,1.37
2018-04-04T21:40:37.149Z,1.40
2018-04-04T21:43:05.405Z,1.03
2018-04-04T21:45:32.873Z,1.23
2018-04-04T21:48:00.625Z,1.20
2018-04-04T21:50:29.763Z,1.57
2018-04-04T21:52:57.411Z,1.30
2018-04-04T21:55:24.891Z,1.70
2018-04-04T21:57:52.443Z,1.20
2018-04-04T22:00:19.877Z,1.43
2018-04-04T22:02:47.873Z,1.12
2018-04-04T22:05:15.333Z,1.05
2018-04-04T22:07:42.795Z,1.33
2018-04-04T22:10:10.289Z,1.03
2018-04-04T22:12:37.761Z,1.23
2018-04-04T22:15:08.892Z,1.00
2018-04-04T22:17:36.373Z,1.60
2018-04-04T22:20:04.951Z,1.90
2018-04-04T22:22:33.166Z,0.93
2018-04-04T22:25:00.677Z,1.20
2018-04-04T22:27:28.252Z,1.10
2018-04-04T22:29:57.242Z,1.12
2018-04-04T22:32:25.491Z,1.90
2018-04-04T22:34:53.008Z,1.45
2018-04-04T22:37:20.478Z,1.52
2018-04-04T22:39:48.022Z,1.17
2018-04-04T22:42:15.897Z,1.30
2018-04-04T22:44:43.452Z,1.30
2018-04-04T22:47:11.166Z,1.60
2018-04-04T22:49:38.620Z,1.10
2018-04-04T22:52:06.454Z,1.27
2018-04-04T22:54:36.022Z,1.20
2018-04-04T22:57:03.571Z,1.30
2018-04-04T22:59:31.857Z,1.10
2018-04-04T23:02:03.311Z,1.65
2018-04-04T23:04:30.853Z,1.37
2018-04-04T23:06:58.351Z,1.20
2018-04-04T23:09:25.868Z,1.40
2018-04-04T23:11:55.065Z,1.58
2018-04-04T23:14:22.595Z,1.30
2018-04-04T23:16:53.893Z,1.10
2018-04-04T23:19:21.424Z,1.10
2018-04-04T23:21:49.830Z,1.30
2018-04-04T23:24:18.235Z,1.10
2018-04-04T23:26:45.722Z,1.23
2018-04-04T23:29:14.188Z,1.55
2018-04-04T23:31:41.675Z,1.00
2018-04-04T23:34:18.062Z,1.50
2018-04-04T23:36:45.548Z,1.33
2018-04-04T23:39:13.039Z,1.20
2018-04-04T23:41:40.534Z,1.40
2018-04-04T23:44:09.695Z,1.10
2018-04-04T23:46:37.223Z,1.10
2018-04-04T23:49:04.738Z,1.27
2018-04-04T23:51:32.223Z,1.13
2018-04-04T23:53:59.908Z,1.30
2018-04-04T23:56:27.384Z,1.33
2018-04-04T23:58:54.883Z,1.17
